createdAt,value
2019-02-17T00:00:39.529Z,8.34
2019-02-17T00:01:39.467Z,8.38
2019-02-17T00:02:39.419Z,8.36
2019-02-17T00:03:39.377Z,8.36
2019-02-17T00:04:39.325Z,8.28
2019-02-17T00:05:39.308Z,8.26
2019-02-17T00:06:39.302Z,8.38
2019-02-17T00:07:39.205Z,8.37
2019-02-17T00:08:39.151Z,8.34
2019-02-17T00:09:39.132Z,8.28
2019-02-17T00:10:39.066Z,8.43
2019-02-17T00:11:39.016Z,8.44
2019-02-17T00:12:39.015Z,8.43
2019-02-17T00:15:10.941Z,8.48
2019-02-17T00:16:10.893Z,8.45
2019-02-17T00:17:10.850Z,8.44
2019-02-17T00:18:10.829Z,8.38
2019-02-17T00:19:10.764Z,8.29
2019-02-17T00:20:10.715Z,8.28
2019-02-17T00:21:10.668Z,8.25
2019-02-17T00:22:10.632Z,8.19
2019-02-17T00:23:10.617Z,8.28
2019-02-17T00:24:10.542Z,8.38
2019-02-17T00:25:10.518Z,8.48
2019-02-17T00:26:10.452Z,8.44
2019-02-17T00:27:10.405Z,8.61
2019-02-17T00:28:10.372Z,8.58
2019-02-17T00:29:10.329Z,8.61
2019-02-17T00:30:10.306Z,8.65
2019-02-17T00:31:10.238Z,8.52
2019-02-17T00:32:10.192Z,8.38
2019-02-17T00:33:10.146Z,8.30
2019-02-17T00:34:10.102Z,8.43
2019-02-17T00:35:10.086Z,8.38
2019-02-17T00:36:10.023Z,8.23
2019-02-17T00:37:09.977Z,8.22
2019-02-17T00:38:09.927Z,8.25
2019-02-17T00:39:09.885Z,8.20
2019-02-17T00:40:09.851Z,7.98
2019-02-17T00:41:09.826Z,7.93
2019-02-17T00:42:09.764Z,7.97
2019-02-17T00:43:09.720Z,7.86
2019-02-17T00:44:09.669Z,7.72
2019-02-17T00:45:09.626Z,7.63
2019-02-17T00:46:09.602Z,7.60
2019-02-17T00:47:09.556Z,7.50
2019-02-17T00:48:09.502Z,7.42
2019-02-17T00:49:09.456Z,7.43
2019-02-17T00:50:09.414Z,7.45
2019-02-17T00:51:09.367Z,7.40
2019-02-17T00:52:09.341Z,7.34
2019-02-17T00:53:09.300Z,7.39
2019-02-17T00:54:09.258Z,7.40
2019-02-17T00:55:09.197Z,7.32
2019-02-17T00:56:09.144Z,7.37
2019-02-17T00:57:09.101Z,7.48
2019-02-17T00:58:09.055Z,7.39
2019-02-17T00:59:10.349Z,7.48
2019-02-17T01:00:08.974Z,7.37
2019-02-17T01:01:08.938Z,7.37
2019-02-17T01:02:08.893Z,7.39
2019-02-17T01:03:08.852Z,7.35
2019-02-17T01:04:08.824Z,7.30
2019-02-17T01:05:08.753Z,7.32
2019-02-17T01:06:08.709Z,7.23
2019-02-17T01:07:08.665Z,7.24
2019-02-17T01:08:08.630Z,7.24
2019-02-17T01:09:08.589Z,7.34
2019-02-17T01:10:08.564Z,7.28
2019-02-17T01:11:08.489Z,7.25
2019-02-17T01:12:08.458Z,7.34
2019-02-17T01:13:08.413Z,7.30
2019-02-17T01:14:08.367Z,7.31
2019-02-17T01:15:08.324Z,7.32
2019-02-17T01:16:08.303Z,7.27
2019-02-17T01:17:08.231Z,7.17
2019-02-17T01:18:08.190Z,7.15
2019-02-17T01:19:08.142Z,7.09
2019-02-17T01:20:08.129Z,7.15
2019-02-17T01:21:08.057Z,7.21
2019-02-17T01:22:08.038Z,7.28
2019-02-17T01:23:07.970Z,7.27
2019-02-17T01:24:07.922Z,7.20
2019-02-17T01:25:07.879Z,7.25
2019-02-17T01:26:07.837Z,7.25
2019-02-17T01:27:07.824Z,7.25
2019-02-17T01:28:07.745Z,7.28
2019-02-17T01:29:07.706Z,7.34
2019-02-17T01:30:07.658Z,7.20
2019-02-17T01:31:08.555Z,7.16
2019-02-17T01:32:07.572Z,7.10
2019-02-17T01:33:07.572Z,7.12
2019-02-17T01:34:07.486Z,6.84
2019-02-17T01:35:07.442Z,6.69
2019-02-17T01:36:07.397Z,6.69
2019-02-17T01:37:07.351Z,6.67
2019-02-17T01:38:07.337Z,6.74
2019-02-17T01:39:07.264Z,6.52
2019-02-17T01:40:07.258Z,6.48
2019-02-17T01:41:07.182Z,6.46
2019-02-17T01:42:07.156Z,6.43
2019-02-17T01:43:07.086Z,6.43
2019-02-17T01:44:07.048Z,6.34
2019-02-17T01:45:07.003Z,6.37
2019-02-17T01:46:06.957Z,6.41
2019-02-17T01:47:06.915Z,6.30
2019-02-17T01:48:06.892Z,6.21
2019-02-17T01:49:06.821Z,6.03
2019-02-17T01:50:06.776Z,5.96
2019-02-17T01:51:06.736Z,5.99
2019-02-17T01:52:06.698Z,5.96
2019-02-17T01:53:06.678Z,6.00
2019-02-17T01:54:06.604Z,6.01
2019-02-17T01:55:06.562Z,5.85
2019-02-17T01:56:06.510Z,5.76
2019-02-17T01:57:06.466Z,5.68
2019-02-17T01:58:06.428Z,5.60
2019-02-17T01:59:06.408Z,5.54
2019-02-17T02:00:06.337Z,5.53
2019-02-17T02:01:06.290Z,5.51
2019-02-17T02:02:06.246Z,5.56
2019-02-17T02:03:06.203Z,5.65
2019-02-17T02:04:06.183Z,5.68
2019-02-17T02:05:06.117Z,5.54
2019-02-17T02:06:06.076Z,5.57
2019-02-17T02:07:06.030Z,5.49
2019-02-17T02:08:05.977Z,5.36
2019-02-17T02:09:05.954Z,5.49
2019-02-17T02:10:05.887Z,5.53
2019-02-17T02:11:05.847Z,5.64
2019-02-17T02:12:05.806Z,5.78
2019-02-17T02:13:05.766Z,5.81
2019-02-17T02:14:06.480Z,5.79
2019-02-17T02:15:05.668Z,5.96
2019-02-17T02:16:05.632Z,6.14
2019-02-17T02:17:05.585Z,6.38
2019-02-17T02:18:05.539Z,6.51
2019-02-17T02:19:05.495Z,6.56
2019-02-17T02:20:05.467Z,6.61
2019-02-17T02:21:05.400Z,6.73
2019-02-17T02:22:05.389Z,6.81
2019-02-17T02:23:05.317Z,6.92
2019-02-17T02:24:05.265Z,6.95
2019-02-17T02:25:05.244Z,6.95
2019-02-17T02:26:05.173Z,7.09
2019-02-17T02:27:05.132Z,7.06
2019-02-17T02:28:05.096Z,7.23
2019-02-17T02:29:05.053Z,7.09
2019-02-17T02:30:05.026Z,7.23
2019-02-17T02:31:04.954Z,7.17
2019-02-17T02:32:04.917Z,7.24
2019-02-17T02:33:04.875Z,7.10
2019-02-17T02:34:04.828Z,7.03
2019-02-17T02:35:04.787Z,7.20
2019-02-17T02:36:04.757Z,7.24
2019-02-17T02:37:04.689Z,7.23
2019-02-17T02:38:04.653Z,7.30
2019-02-17T02:39:04.601Z,7.25
2019-02-17T02:40:04.588Z,7.20
2019-02-17T02:41:04.542Z,7.16
2019-02-17T02:42:04.476Z,7.24
2019-02-17T02:43:04.431Z,7.24
2019-02-17T02:44:04.377Z,7.24
2019-02-17T02:45:04.345Z,7.32
2019-02-17T02:46:04.319Z,7.32
2019-02-17T02:47:04.270Z,7.32
2019-02-17T02:48:04.201Z,7.27
2019-02-17T02:49:04.176Z,7.25
2019-02-17T02:50:04.115Z,7.20
2019-02-17T02:51:04.099Z,7.05
2019-02-17T02:52:04.031Z,7.06
2019-02-17T02:53:03.999Z,7.10
2019-02-17T02:54:03.945Z,6.95
2019-02-17T02:55:03.899Z,6.89
2019-02-17T02:56:03.850Z,6.77
2019-02-17T02:57:03.835Z,6.70
2019-02-17T02:58:03.765Z,6.66
2019-02-17T02:59:03.713Z,6.69
2019-02-17T03:00:03.684Z,6.80
2019-02-17T03:01:03.632Z,6.91
2019-02-17T03:02:03.609Z,6.94
2019-02-17T03:03:03.539Z,6.98
2019-02-17T03:04:03.505Z,7.17
2019-02-17T03:05:03.458Z,7.24
2019-02-17T03:06:03.415Z,7.27
2019-02-17T03:07:03.369Z,7.32
2019-02-17T03:08:03.340Z,7.24
2019-02-17T03:09:03.273Z,7.28
2019-02-17T03:10:03.233Z,7.16
2019-02-17T03:11:03.184Z,7.10
2019-02-17T03:12:03.149Z,7.02
2019-02-17T03:13:03.132Z,6.92
2019-02-17T03:14:03.060Z,6.94
2019-02-17T03:15:03.015Z,6.79
2019-02-17T03:16:02.966Z,6.84
2019-02-17T03:17:02.919Z,6.91
2019-02-17T03:18:02.889Z,6.88
2019-02-17T03:19:02.870Z,6.81
2019-02-17T03:20:02.789Z,6.88
2019-02-17T03:21:02.747Z,6.79
2019-02-17T03:22:02.701Z,6.84
2019-02-17T03:23:02.656Z,6.69
2019-02-17T03:24:02.640Z,6.67
2019-02-17T03:25:02.575Z,6.66
2019-02-17T03:26:02.529Z,6.61
2019-02-17T03:27:02.484Z,6.62
2019-02-17T03:28:02.434Z,6.44
2019-02-17T03:29:02.421Z,6.41
2019-02-17T03:30:05.414Z,6.34
2019-02-17T03:31:02.328Z,6.09
2019-02-17T03:32:02.263Z,6.08
2019-02-17T03:33:02.225Z,5.89
2019-02-17T03:34:02.192Z,5.71
2019-02-17T03:35:02.123Z,5.56
2019-02-17T03:36:02.088Z,5.53
2019-02-17T03:37:02.079Z,5.46
2019-02-17T03:38:01.997Z,5.49
2019-02-17T03:39:01.952Z,5.38
2019-02-17T03:40:01.924Z,5.43
2019-02-17T03:41:01.859Z,5.27
2019-02-17T03:42:01.815Z,5.27
2019-02-17T03:43:01.794Z,5.24
2019-02-17T03:44:01.755Z,5.33
2019-02-17T03:45:01.687Z,5.17
2019-02-17T03:46:01.643Z,5.22
2019-02-17T03:47:01.597Z,5.25
2019-02-17T03:48:01.553Z,5.09
2019-02-17T03:49:01.523Z,5.24
2019-02-17T03:50:01.469Z,5.25
2019-02-17T03:51:01.425Z,5.30
2019-02-17T03:52:01.370Z,5.30
2019-02-17T03:53:01.334Z,5.18
2019-02-17T03:54:01.300Z,5.24
2019-02-17T03:55:01.233Z,5.12
2019-02-17T03:56:01.206Z,5.06
2019-02-17T03:57:01.170Z,5.12
2019-02-17T03:58:01.109Z,4.99
2019-02-17T03:59:01.091Z,4.88
2019-02-17T04:00:01.012Z,4.84
2019-02-17T04:01:00.966Z,4.70
2019-02-17T04:02:00.924Z,4.67
2019-02-17T04:03:00.876Z,4.72
2019-02-17T04:04:00.838Z,4.59
2019-02-17T04:05:00.822Z,4.50
2019-02-17T04:06:00.741Z,4.47
2019-02-17T04:07:00.701Z,4.42
2019-02-17T04:08:00.661Z,4.30
2019-02-17T04:09:00.613Z,4.24
2019-02-17T04:10:00.580Z,4.16
2019-02-17T04:11:00.554Z,4.14
2019-02-17T04:12:00.475Z,4.04
2019-02-17T04:13:00.426Z,3.91
2019-02-17T04:14:00.387Z,3.84
2019-02-17T04:15:00.402Z,3.78
2019-02-17T04:16:00.304Z,3.83
2019-02-17T04:17:00.281Z,3.86
2019-02-17T04:18:00.210Z,3.70
2019-02-17T04:19:00.168Z,3.66
2019-02-17T04:20:00.178Z,3.50
2019-02-17T04:21:00.091Z,3.45
2019-02-17T04:22:00.026Z,3.43
2019-02-17T04:22:59.983Z,3.43
2019-02-17T04:23:59.930Z,3.43
2019-02-17T04:24:59.888Z,3.36
2019-02-17T04:25:59.865Z,3.39
2019-02-17T04:26:59.792Z,3.29
2019-02-17T04:27:59.752Z,3.24
2019-02-17T04:28:59.717Z,3.29
2019-02-17T04:29:59.680Z,3.26
2019-02-17T04:30:59.648Z,3.20
2019-02-17T04:31:59.570Z,3.33
2019-02-17T04:32:59.578Z,3.39
2019-02-17T04:33:59.482Z,3.28
2019-02-17T04:34:59.429Z,3.26
2019-02-17T04:35:59.391Z,3.20
2019-02-17T04:36:59.370Z,3.39
2019-02-17T04:37:59.297Z,3.35
2019-02-17T04:38:59.252Z,3.55
2019-02-17T04:39:59.212Z,3.70
2019-02-17T04:40:59.168Z,3.68
2019-02-17T04:41:59.146Z,3.93
2019-02-17T04:42:59.077Z,3.96
2019-02-17T04:43:59.025Z,4.14
2019-02-17T04:44:58.977Z,4.58
2019-02-17T04:45:58.935Z,4.55
2019-02-17T04:46:58.913Z,4.55
2019-02-17T04:47:58.845Z,4.62
2019-02-17T04:48:58.804Z,4.63
2019-02-17T04:49:58.754Z,4.59
2019-02-17T04:50:58.706Z,4.52
2019-02-17T04:51:58.683Z,4.65
2019-02-17T04:52:58.638Z,4.67
2019-02-17T04:53:58.582Z,4.88
2019-02-17T04:54:58.528Z,4.89
2019-02-17T04:55:58.476Z,5.00
2019-02-17T04:56:58.429Z,5.15
2019-02-17T04:57:58.407Z,5.51
2019-02-17T04:58:58.342Z,5.75
2019-02-17T04:59:58.300Z,5.75
2019-02-17T05:00:58.257Z,5.76
2019-02-17T05:01:58.216Z,6.00
2019-02-17T05:02:58.192Z,6.06
2019-02-17T05:03:58.116Z,6.11
2019-02-17T05:04:58.068Z,6.31
2019-02-17T05:05:58.026Z,6.38
2019-02-17T05:06:57.976Z,6.40
2019-02-17T05:07:57.942Z,6.48
2019-02-17T05:08:57.915Z,6.43
2019-02-17T05:09:57.843Z,6.49
2019-02-17T05:10:57.801Z,6.49
2019-02-17T05:11:57.762Z,6.51
2019-02-17T05:12:57.738Z,6.61
2019-02-17T05:13:57.668Z,6.56
2019-02-17T05:14:57.628Z,6.59
2019-02-17T05:15:57.573Z,6.62
2019-02-17T05:16:57.529Z,6.43
2019-02-17T05:17:57.507Z,6.51
2019-02-17T05:18:57.441Z,6.51
2019-02-17T05:19:57.428Z,6.43
2019-02-17T05:20:57.359Z,6.46
2019-02-17T05:21:57.312Z,6.43
2019-02-17T05:22:57.288Z,6.40
2019-02-17T05:23:57.241Z,6.30
2019-02-17T05:24:57.183Z,6.21
2019-02-17T05:25:57.133Z,6.33
2019-02-17T05:26:57.087Z,6.25
2019-02-17T05:27:57.039Z,6.37
2019-02-17T05:28:56.992Z,6.28
2019-02-17T05:29:56.969Z,6.22
2019-02-17T05:30:56.914Z,6.31
2019-02-17T05:31:56.865Z,6.33
2019-02-17T05:32:56.820Z,6.46
2019-02-17T05:33:56.794Z,6.37
2019-02-17T05:34:58.986Z,6.55
2019-02-17T05:35:56.680Z,6.44
2019-02-17T05:36:56.632Z,6.41
2019-02-17T05:37:56.593Z,6.40
2019-02-17T05:38:56.542Z,6.44
2019-02-17T05:39:56.509Z,6.31
2019-02-17T05:40:56.492Z,6.38
2019-02-17T05:41:56.415Z,6.37
2019-02-17T05:42:56.366Z,6.43
2019-02-17T05:43:56.334Z,6.52
2019-02-17T05:44:56.288Z,6.48
2019-02-17T05:45:56.241Z,6.51
2019-02-17T05:46:56.218Z,6.48
2019-02-17T05:47:56.143Z,6.48
2019-02-17T05:48:56.098Z,6.70
2019-02-17T05:49:56.077Z,6.74
2019-02-17T05:50:56.009Z,6.66
2019-02-17T05:51:55.975Z,6.62
2019-02-17T05:52:55.928Z,6.64
2019-02-17T05:53:55.884Z,6.66
2019-02-17T05:54:55.864Z,6.69
2019-02-17T05:55:55.789Z,6.62
2019-02-17T05:56:55.745Z,6.64
2019-02-17T05:57:55.707Z,6.69
2019-02-17T05:58:55.670Z,6.70
2019-02-17T05:59:55.636Z,6.66
2019-02-17T06:01:03.318Z,6.91
2019-02-17T06:01:55.525Z,6.84
2019-02-17T06:02:55.474Z,7.02
2019-02-17T06:03:55.439Z,7.02
2019-02-17T06:04:55.398Z,7.12
2019-02-17T06:05:55.351Z,7.17
2019-02-17T06:06:55.331Z,7.21
2019-02-17T06:07:55.255Z,7.40
2019-02-17T06:08:55.214Z,7.31
2019-02-17T06:09:55.190Z,7.25
2019-02-17T06:10:55.125Z,7.39
2019-02-17T06:11:55.084Z,7.27
2019-02-17T06:12:55.043Z,7.21
2019-02-17T06:13:55.018Z,7.24
2019-02-17T06:14:54.982Z,7.28
2019-02-17T06:15:54.941Z,7.32
2019-02-17T06:16:54.872Z,7.24
2019-02-17T06:17:54.819Z,7.21
2019-02-17T06:18:54.799Z,7.30
2019-02-17T06:19:54.729Z,7.42
2019-02-17T06:20:54.712Z,7.55
2019-02-17T06:21:54.637Z,7.50
2019-02-17T06:22:54.611Z,7.58
2019-02-17T06:23:54.552Z,7.60
2019-02-17T06:24:54.511Z,7.71
2019-02-17T06:25:54.489Z,7.69
2019-02-17T06:26:54.426Z,7.60
2019-02-17T06:27:54.372Z,7.68
2019-02-17T06:28:54.334Z,7.61
2019-02-17T06:29:54.286Z,7.64
2019-02-17T06:30:54.271Z,7.72
2019-02-17T06:31:54.189Z,7.72
2019-02-17T06:32:54.170Z,7.64
2019-02-17T06:33:54.106Z,7.75
2019-02-17T06:34:54.063Z,7.85
2019-02-17T06:35:54.021Z,7.85
2019-02-17T06:36:53.977Z,7.77
2019-02-17T06:37:53.961Z,7.85
2019-02-17T06:38:53.892Z,7.82
2019-02-17T06:39:53.839Z,7.87
2019-02-17T06:40:53.796Z,7.83
2019-02-17T06:41:53.780Z,7.89
2019-02-17T06:42:53.728Z,7.92
2019-02-17T06:43:53.672Z,7.97
2019-02-17T06:44:53.629Z,7.97
2019-02-17T06:45:53.590Z,8.00
2019-02-17T06:46:53.557Z,8.00
2019-02-17T06:47:53.527Z,7.98
2019-02-17T06:48:53.458Z,8.02
2019-02-17T06:49:53.402Z,8.00
2019-02-17T06:50:53.358Z,7.93
2019-02-17T06:51:53.329Z,7.90
2019-02-17T06:52:53.269Z,7.80
2019-02-17T06:53:53.258Z,7.87
2019-02-17T06:54:53.185Z,7.83
2019-02-17T06:55:53.149Z,7.95
2019-02-17T06:56:53.096Z,7.86
2019-02-17T06:57:53.061Z,7.90
2019-02-17T06:58:53.010Z,7.89
2019-02-17T06:59:52.981Z,7.79
2019-02-17T07:00:52.922Z,7.87
2019-02-17T07:01:52.877Z,7.86
2019-02-17T07:02:52.870Z,7.82
2019-02-17T07:03:52.783Z,7.80
2019-02-17T07:04:52.793Z,7.90
2019-02-17T07:05:52.713Z,7.82
2019-02-17T07:06:52.681Z,7.69
2019-02-17T07:07:52.623Z,7.77
2019-02-17T07:08:52.605Z,7.69
2019-02-17T07:09:52.523Z,7.61
2019-02-17T07:10:52.486Z,7.69
2019-02-17T07:11:52.437Z,7.58
2019-02-17T07:12:52.399Z,7.82
2019-02-17T07:13:52.374Z,7.83
2019-02-17T07:14:52.320Z,7.80
2019-02-17T07:15:52.271Z,7.93
2019-02-17T07:16:52.238Z,8.00
2019-02-17T07:17:52.169Z,8.08
2019-02-17T07:18:52.128Z,8.08
2019-02-17T07:19:52.123Z,8.11
2019-02-17T07:20:52.054Z,8.26
2019-02-17T07:21:51.999Z,8.26
2019-02-17T07:22:51.960Z,8.23
2019-02-17T07:23:51.906Z,8.25
2019-02-17T07:24:51.883Z,8.07
2019-02-17T07:25:51.872Z,8.04
2019-02-17T07:26:51.782Z,8.07
2019-02-17T07:27:51.743Z,8.15
2019-02-17T07:28:51.697Z,8.30
2019-02-17T07:29:51.660Z,8.22
2019-02-17T07:30:51.611Z,8.48
2019-02-17T07:31:51.582Z,8.63
2019-02-17T07:32:51.512Z,8.84
2019-02-17T07:33:51.482Z,8.89
2019-02-17T07:34:51.445Z,8.68
2019-02-17T07:35:51.397Z,8.48
2019-02-17T07:36:51.367Z,8.62
2019-02-17T07:37:51.297Z,8.53
2019-02-17T07:38:51.265Z,8.66
2019-02-17T07:39:51.249Z,8.61
2019-02-17T07:40:51.185Z,8.63
2019-02-17T07:41:51.141Z,8.44
2019-02-17T07:42:51.098Z,8.44
2019-02-17T07:43:51.042Z,8.36
2019-02-17T07:44:51.023Z,8.41
2019-02-17T07:45:50.995Z,8.44
2019-02-17T07:46:50.947Z,8.55
2019-02-17T07:47:50.885Z,8.53
2019-02-17T07:48:50.841Z,8.43
2019-02-17T07:49:50.791Z,8.23
2019-02-17T07:50:50.751Z,8.37
2019-02-17T07:51:50.734Z,8.30
2019-02-17T07:52:50.671Z,8.26
2019-02-17T07:53:50.625Z,8.26
2019-02-17T07:54:50.616Z,8.40
2019-02-17T07:55:50.564Z,8.44
2019-02-17T07:56:50.491Z,8.59
2019-02-17T07:57:50.464Z,8.83
2019-02-17T07:58:50.437Z,9.08
2019-02-17T07:59:50.420Z,9.04
2019-02-17T08:00:50.350Z,9.11
2019-02-17T08:01:50.324Z,9.23
2019-02-17T08:02:50.252Z,9.43
2019-02-17T08:03:50.299Z,9.79
2019-02-17T08:04:50.198Z,10.01
2019-02-17T08:05:50.134Z,10.25
2019-02-17T08:06:50.092Z,10.51
2019-02-17T08:07:50.037Z,10.71
2019-02-17T08:08:50.029Z,10.60
2019-02-17T08:09:49.958Z,10.66
2019-02-17T08:10:49.913Z,10.76
2019-02-17T08:11:49.883Z,11.11
2019-02-17T08:12:49.852Z,11.24
2019-02-17T08:13:49.794Z,11.35
2019-02-17T08:14:49.781Z,11.61
2019-02-17T08:15:49.704Z,11.72
2019-02-17T08:16:49.668Z,11.96
2019-02-17T08:17:49.634Z,12.04
2019-02-17T08:18:49.604Z,12.19
2019-02-17T08:19:49.579Z,12.04
2019-02-17T08:20:49.522Z,12.12
2019-02-17T08:21:49.479Z,12.07
2019-02-17T08:22:49.432Z,11.83
2019-02-17T08:23:49.392Z,11.78
2019-02-17T08:24:49.394Z,11.78
2019-02-17T08:25:49.323Z,11.91
2019-02-17T08:26:49.271Z,12.10
2019-02-17T08:27:49.239Z,12.28
2019-02-17T08:28:49.206Z,12.47
2019-02-17T08:29:49.177Z,12.53
2019-02-17T08:30:49.134Z,12.65
2019-02-17T08:31:55.772Z,12.41
2019-02-17T08:32:49.207Z,12.42
2019-02-17T08:33:49.011Z,12.68
2019-02-17T08:34:48.967Z,12.97
2019-02-17T08:35:48.933Z,13.00
2019-02-17T08:36:48.878Z,13.25
2019-02-17T08:37:48.849Z,13.05
2019-02-17T08:38:48.814Z,12.95
2019-02-17T08:39:48.991Z,13.00
2019-02-17T08:40:48.768Z,13.07
2019-02-17T08:41:48.694Z,13.11
2019-02-17T08:42:48.643Z,13.08
2019-02-17T08:43:48.621Z,12.65
2019-02-17T08:44:48.589Z,12.42
2019-02-17T08:45:48.529Z,12.57
2019-02-17T08:46:48.531Z,12.96
2019-02-17T08:47:48.450Z,13.28
2019-02-17T08:48:48.437Z,13.42
2019-02-17T08:49:48.386Z,13.75
2019-02-17T08:50:48.351Z,14.20
2019-02-17T08:51:48.312Z,14.32
2019-02-17T08:52:48.313Z,14.57
2019-02-17T08:53:48.234Z,14.70
2019-02-17T08:54:48.191Z,14.98
2019-02-17T08:55:48.229Z,14.50
2019-02-17T08:56:48.150Z,14.40
2019-02-17T08:57:48.084Z,14.21
2019-02-17T08:58:48.064Z,14.28
2019-02-17T08:59:48.002Z,14.29
2019-02-17T09:00:48.018Z,14.28
2019-02-17T09:01:48.024Z,14.22
2019-02-17T09:02:48.092Z,14.43
2019-02-17T09:03:48.042Z,14.51
2019-02-17T09:04:47.991Z,14.18
2019-02-17T09:05:47.963Z,13.77
2019-02-17T09:06:47.989Z,13.96
2019-02-17T09:07:47.927Z,14.17
2019-02-17T09:08:47.705Z,14.39
2019-02-17T09:09:47.638Z,14.60
2019-02-17T09:10:47.603Z,14.43
2019-02-17T09:11:47.563Z,14.43
2019-02-17T09:12:47.556Z,14.62
2019-02-17T09:13:47.484Z,14.68
2019-02-17T09:14:47.450Z,14.89
2019-02-17T09:15:47.429Z,14.42
2019-02-17T09:16:47.383Z,14.51
2019-02-17T09:17:47.359Z,14.39
2019-02-17T09:18:47.362Z,14.64
2019-02-17T09:19:47.305Z,14.61
2019-02-17T09:20:47.232Z,14.10
2019-02-17T09:21:47.195Z,14.14
2019-02-17T09:22:47.206Z,13.82
2019-02-17T09:23:47.129Z,13.57
2019-02-17T09:24:47.147Z,13.51
2019-02-17T09:25:47.057Z,13.60
2019-02-17T09:26:47.010Z,13.67
2019-02-17T09:27:47.078Z,14.03
2019-02-17T09:28:46.947Z,14.15
2019-02-17T09:29:46.939Z,14.21
2019-02-17T09:30:46.873Z,14.21
2019-02-17T09:31:46.830Z,14.21
2019-02-17T09:32:46.796Z,14.15
2019-02-17T09:33:46.764Z,14.42
2019-02-17T09:34:46.985Z,14.50
2019-02-17T09:35:46.715Z,14.70
2019-02-17T09:36:46.678Z,14.96
2019-02-17T09:37:46.629Z,14.60
2019-02-17T09:38:46.604Z,14.80
2019-02-17T09:39:46.543Z,14.96
2019-02-17T09:40:46.502Z,14.45
2019-02-17T09:41:46.503Z,14.42
2019-02-17T09:42:46.433Z,14.43
2019-02-17T09:43:46.399Z,14.37
2019-02-17T09:44:46.380Z,14.22
2019-02-17T09:45:46.335Z,14.40
2019-02-17T09:46:46.285Z,14.57
2019-02-17T09:47:46.268Z,14.42
2019-02-17T09:48:46.260Z,14.40
2019-02-17T09:49:46.205Z,14.43
2019-02-17T09:50:46.151Z,14.12
2019-02-17T09:51:46.122Z,14.32
2019-02-17T09:52:46.070Z,14.65
2019-02-17T09:53:46.068Z,14.81
2019-02-17T09:54:45.985Z,14.91
2019-02-17T09:55:45.961Z,14.92
2019-02-17T09:56:45.927Z,14.62
2019-02-17T09:57:45.908Z,14.81
2019-02-17T09:58:45.865Z,15.17
2019-02-17T09:59:45.840Z,15.28
2019-02-17T10:00:45.773Z,15.29
2019-02-17T10:01:45.741Z,14.92
2019-02-17T10:02:45.736Z,14.84
2019-02-17T10:03:45.659Z,14.98
2019-02-17T10:04:45.620Z,15.32
2019-02-17T10:05:45.584Z,15.62
2019-02-17T10:06:45.575Z,16.21
2019-02-17T10:07:45.521Z,16.07
2019-02-17T10:08:45.491Z,15.89
2019-02-17T10:09:45.462Z,16.20
2019-02-17T10:10:45.407Z,16.35
2019-02-17T10:11:45.390Z,16.58
2019-02-17T10:12:45.332Z,16.53
2019-02-17T10:13:45.299Z,16.34
2019-02-17T10:14:45.274Z,16.42
2019-02-17T10:15:45.249Z,16.33
2019-02-17T10:16:45.190Z,16.61
2019-02-17T10:17:45.159Z,16.75
2019-02-17T10:18:45.112Z,16.79
2019-02-17T10:19:45.095Z,16.21
2019-02-17T10:20:45.079Z,16.05
2019-02-17T10:21:45.024Z,16.25
2019-02-17T10:22:44.986Z,16.57
2019-02-17T10:23:44.938Z,16.86
2019-02-17T10:24:44.909Z,17.11
2019-02-17T10:25:44.892Z,17.07
2019-02-17T10:26:44.833Z,17.25
2019-02-17T10:27:44.814Z,17.38
2019-02-17T10:28:44.775Z,17.40
2019-02-17T10:29:44.731Z,17.54
2019-02-17T10:30:44.721Z,17.68
2019-02-17T10:31:44.679Z,17.70
2019-02-17T10:32:44.645Z,17.55
2019-02-17T10:33:44.615Z,17.48
2019-02-17T10:34:44.578Z,17.52
2019-02-17T10:35:44.522Z,17.49
2019-02-17T10:36:44.519Z,17.54
2019-02-17T10:37:44.467Z,17.41
2019-02-17T10:38:44.459Z,17.48
2019-02-17T10:39:44.400Z,17.55
2019-02-17T10:40:44.409Z,17.15
2019-02-17T10:41:44.349Z,17.18
2019-02-17T10:42:44.306Z,17.18
2019-02-17T10:43:44.285Z,17.08
2019-02-17T10:44:44.213Z,17.44
2019-02-17T10:45:44.185Z,17.46
2019-02-17T10:46:44.178Z,17.51
2019-02-17T10:47:44.108Z,17.28
2019-02-17T10:48:44.193Z,17.54
2019-02-17T10:49:44.045Z,17.28
2019-02-17T10:50:44.004Z,17.62
2019-02-17T10:51:44.013Z,17.55
2019-02-17T10:52:43.948Z,17.62
2019-02-17T10:53:43.922Z,17.18
2019-02-17T10:54:43.886Z,17.04
2019-02-17T10:55:43.855Z,17.30
2019-02-17T10:56:43.821Z,17.52
2019-02-17T10:57:43.766Z,17.43
2019-02-17T10:58:43.733Z,17.03
2019-02-17T10:59:43.710Z,17.06
2019-02-17T11:00:43.671Z,17.15
2019-02-17T11:01:43.653Z,17.34
2019-02-17T11:02:47.265Z,17.54
2019-02-17T11:03:43.584Z,16.98
2019-02-17T11:04:43.537Z,17.04
2019-02-17T11:05:43.508Z,17.11
2019-02-17T11:06:43.460Z,17.25
2019-02-17T11:07:43.465Z,17.21
2019-02-17T11:08:43.405Z,17.33
2019-02-17T11:09:43.350Z,16.79
2019-02-17T11:10:43.310Z,16.79
2019-02-17T11:11:43.282Z,16.76
2019-02-17T11:12:43.286Z,16.64
2019-02-17T11:13:43.218Z,16.67
2019-02-17T11:14:43.184Z,16.89
2019-02-17T11:15:43.146Z,16.93
2019-02-17T11:16:43.130Z,16.76
2019-02-17T11:17:43.137Z,16.89
2019-02-17T11:18:43.073Z,17.00
2019-02-17T11:19:43.066Z,17.03
2019-02-17T11:20:42.994Z,17.03
2019-02-17T11:21:42.923Z,17.12
2019-02-17T11:22:43.026Z,17.04
2019-02-17T11:23:43.063Z,16.76
2019-02-17T11:24:42.860Z,16.97
2019-02-17T11:25:42.798Z,17.15
2019-02-17T11:26:42.772Z,17.36
2019-02-17T11:27:42.715Z,17.34
2019-02-17T11:28:42.699Z,17.23
2019-02-17T11:29:42.641Z,17.31
2019-02-17T11:30:42.607Z,17.31
2019-02-17T11:31:42.580Z,17.30
2019-02-17T11:32:42.551Z,17.31
2019-02-17T11:33:42.520Z,17.46
2019-02-17T11:34:42.459Z,17.37
2019-02-17T11:35:42.437Z,17.28
2019-02-17T11:36:42.405Z,17.16
2019-02-17T11:37:42.367Z,17.26
2019-02-17T11:38:42.356Z,17.40
2019-02-17T11:39:42.320Z,17.33
2019-02-17T11:40:42.332Z,17.14
2019-02-17T11:41:42.221Z,17.16
2019-02-17T11:42:42.183Z,17.49
2019-02-17T11:43:42.170Z,17.33
2019-02-17T11:44:42.154Z,17.43
2019-02-17T11:45:42.084Z,17.33
2019-02-17T11:46:42.157Z,17.44
2019-02-17T11:47:42.015Z,17.40
2019-02-17T11:48:41.984Z,17.31
2019-02-17T11:49:41.978Z,17.36
2019-02-17T11:50:41.934Z,17.49
2019-02-17T11:51:41.871Z,17.71
2019-02-17T11:52:41.836Z,17.25
2019-02-17T11:53:41.803Z,17.43
2019-02-17T11:54:41.771Z,17.44
2019-02-17T11:55:41.765Z,17.43
2019-02-17T11:56:41.709Z,17.54
2019-02-17T11:57:41.666Z,17.68
2019-02-17T11:58:41.692Z,17.63
2019-02-17T11:59:41.623Z,17.66
2019-02-17T12:00:41.579Z,17.70
2019-02-17T12:01:41.519Z,17.90
2019-02-17T12:02:41.485Z,17.77
2019-02-17T12:03:41.465Z,17.66
2019-02-17T12:04:41.423Z,17.52
2019-02-17T12:05:41.431Z,17.46
2019-02-17T12:06:41.349Z,17.41
2019-02-17T12:07:41.318Z,17.38
2019-02-17T12:08:41.287Z,17.49
2019-02-17T12:09:41.250Z,17.31
2019-02-17T12:10:41.217Z,17.46
2019-02-17T12:11:41.196Z,17.44
2019-02-17T12:12:41.143Z,17.41
2019-02-17T12:13:41.103Z,17.51
2019-02-17T12:14:41.091Z,17.64
2019-02-17T12:15:41.051Z,17.37
2019-02-17T12:16:41.027Z,17.34
2019-02-17T12:17:41.373Z,17.43
2019-02-17T12:18:40.934Z,17.43
2019-02-17T12:19:41.083Z,17.52
2019-02-17T12:20:40.999Z,17.66
2019-02-17T12:21:40.851Z,17.55
2019-02-17T12:22:40.796Z,17.49
2019-02-17T12:23:40.751Z,17.26
2019-02-17T12:24:40.720Z,17.44
2019-02-17T12:25:40.680Z,17.31
2019-02-17T12:26:40.673Z,17.31
2019-02-17T12:27:40.623Z,17.40
2019-02-17T12:28:40.589Z,17.41
2019-02-17T12:29:40.550Z,17.55
2019-02-17T12:30:40.521Z,17.52
2019-02-17T12:31:40.497Z,17.43
2019-02-17T12:32:40.439Z,17.51
2019-02-17T12:33:40.407Z,17.44
2019-02-17T12:34:40.371Z,17.31
2019-02-17T12:35:40.341Z,17.31
2019-02-17T12:36:40.373Z,17.31
2019-02-17T12:37:40.265Z,17.23
2019-02-17T12:38:40.230Z,17.25
2019-02-17T12:39:40.204Z,17.26
2019-02-17T12:40:40.167Z,17.11
2019-02-17T12:41:40.134Z,17.08
2019-02-17T12:42:40.130Z,17.16
2019-02-17T12:43:40.099Z,17.30
2019-02-17T12:44:40.021Z,17.28
2019-02-17T12:45:39.997Z,17.19
2019-02-17T12:46:39.985Z,17.21
2019-02-17T12:47:39.925Z,17.33
2019-02-17T12:48:39.929Z,17.41
2019-02-17T12:49:39.850Z,17.38
2019-02-17T12:50:39.819Z,17.46
2019-02-17T12:51:39.783Z,17.38
2019-02-17T12:52:46.842Z,17.16
2019-02-17T12:53:39.716Z,17.00
2019-02-17T12:54:39.705Z,17.06
2019-02-17T12:55:39.640Z,17.04
2019-02-17T12:56:39.608Z,17.08
2019-02-17T12:57:39.567Z,17.14
2019-02-17T12:58:39.538Z,17.19
2019-02-17T12:59:39.535Z,17.16
2019-02-17T13:00:39.530Z,17.07
2019-02-17T13:01:39.442Z,17.11
2019-02-17T13:02:39.402Z,17.15
2019-02-17T13:03:39.367Z,17.21
2019-02-17T13:04:39.362Z,17.22
2019-02-17T13:05:39.296Z,17.18
2019-02-17T13:06:39.263Z,17.11
2019-02-17T13:07:39.238Z,17.11
2019-02-17T13:08:39.211Z,17.06
2019-02-17T13:09:39.169Z,17.03